Time;durP1;ratioP1;P1;durP2;ratioP2;P2;SDS_P1;SDS_P2;PMS_P1;PMS_P2;Temp;Humidity;BMP_temperature;BMP_pressure;BME280_temperature;BME280_humidity;BME280_pressure;Samples;Min_cycle;Max_cycle;Signal;HPM_P1;HPM_P2
2022/01/25 00:08:41;;;;;;;5.20;3.93;;;4.80;99.90;;;;;;7384747;19;20313;-79
2022/01/25 00:24:25;;;;;;;4.32;3.92;;;4.90;99.90;;;;;;7280146;19;2004525;-79
2022/01/25 00:29:36;;;;;;;5.73;4.87;;;5.00;99.90;;;;;;7279988;19;2006076;-79
2022/01/25 00:32:02;;;;;;;4.22;3.83;;;4.90;99.90;;;;;;7277779;19;2004399;-78
2022/01/25 00:34:28;;;;;;;6.35;4.60;;;4.90;99.90;;;;;;7382097;19;20345;-79
2022/01/25 00:36:53;;;;;;;5.20;4.60;;;4.90;99.90;;;;;;7384227;19;20323;-79
2022/01/25 00:39:19;;;;;;;4.82;4.32;;;4.80;99.90;;;;;;7382008;19;20324;-79
2022/01/25 00:41:45;;;;;;;5.10;4.60;;;4.80;99.90;;;;;;7383614;19;20394;-79
2022/01/25 00:44:12;;;;;;;5.10;4.57;;;4.80;99.90;;;;;;7383184;19;20316;-79
2022/01/25 00:46:38;;;;;;;4.90;4.43;;;4.80;99.90;;;;;;7383167;19;20348;-80
2022/01/25 00:49:04;;;;;;;5.05;4.15;;;4.90;99.90;;;;;;7382215;19;20344;-79
2022/01/25 00:54:12;;;;;;;4.40;4.00;;;4.80;99.90;;;;;;7383092;19;20942;-80
2022/01/25 00:56:45;;;;;;;5.35;4.18;;;4.70;99.90;;;;;;7384453;19;20389;-78
2022/01/25 00:59:13;;;;;;;4.10;3.70;;;4.70;99.90;;;;;;7383244;19;20309;-78
2022/01/25 01:01:38;;;;;;;3.70;3.40;;;4.80;99.90;;;;;;7384911;19;20324;-80
2022/01/25 01:04:05;;;;;;;4.78;3.95;;;4.70;99.90;;;;;;7383186;19;20331;-79
2022/01/25 01:06:30;;;;;;;4.57;4.00;;;4.70;99.90;;;;;;7391711;19;20313;-79
2022/01/25 01:08:56;;;;;;;4.25;3.85;;;4.80;99.90;;;;;;7386985;19;20324;-78
2022/01/25 01:11:29;;;;;;;5.37;4.87;;;4.70;99.90;;;;;;7385532;19;21077;-78
2022/01/25 01:48:32;;;;;;;4.05;3.00;;;4.70;99.90;;;;;;7280705;19;2004406;-78
2022/01/25 01:51:05;;;;;;;3.40;3.10;;;4.60;99.90;;;;;;7281165;19;2004471;-79
2022/01/25 01:53:31;;;;;;;3.08;2.83;;;4.60;99.90;;;;;;7382664;19;20305;-77
2022/01/25 01:55:57;;;;;;;3.25;2.90;;;4.60;99.90;;;;;;7381547;19;20432;-78
2022/01/25 01:58:22;;;;;;;3.40;3.07;;;4.70;99.90;;;;;;7380466;19;20780;-78
2022/01/25 02:00:48;;;;;;;3.10;2.80;;;4.60;99.90;;;;;;7384053;19;20324;-79
2022/01/25 03:18:48;;;;;;;5.43;4.30;;;4.30;99.90;;;;;;7249265;19;2004443;-79
2022/01/25 03:23:43;;;;;;;4.57;3.97;;;4.30;99.90;;;;;;7387300;19;21021;-78
2022/01/25 03:26:09;;;;;;;4.57;3.72;;;4.40;99.90;;;;;;7388465;19;20400;-79
2022/01/25 03:28:35;;;;;;;6.43;4.93;;;4.30;99.90;;;;;;7386749;19;20349;-79
2022/01/25 03:31:00;;;;;;;7.22;5.13;;;4.30;99.90;;;;;;7385382;19;20317;-80
2022/01/25 03:33:26;;;;;;;6.30;5.40;;;4.50;99.90;;;;;;7384403;19;20339;-80
2022/01/25 03:35:52;;;;;;;7.55;5.28;;;4.30;99.90;;;;;;7385323;19;20348;-78
2022/01/25 03:38:17;;;;;;;6.27;5.67;;;4.30;99.90;;;;;;7385949;19;20312;-79
2022/01/25 03:40:45;;;;;;;5.93;5.18;;;4.30;99.90;;;;;;7387984;19;20709;-78
2022/01/25 03:43:11;;;;;;;6.05;5.50;;;4.40;99.90;;;;;;7383260;19;21129;-79
2022/01/25 03:45:39;;;;;;;7.53;5.93;;;4.20;99.90;;;;;;7387305;19;20380;-78
2022/01/25 03:50:39;;;;;;;7.85;6.35;;;4.20;99.90;;;;;;7384491;19;20345;-79
2022/01/25 03:53:05;;;;;;;8.27;6.50;;;4.20;99.90;;;;;;7384810;19;20320;-78
2022/01/25 03:55:31;;;;;;;6.93;5.82;;;4.20;99.90;;;;;;7383077;19;20336;-78
2022/01/25 03:57:57;;;;;;;7.10;6.40;;;4.20;99.90;;;;;;7385953;19;20323;-78
2022/01/25 04:00:22;;;;;;;6.72;6.13;;;4.20;99.90;;;;;;7385954;19;20308;-78
2022/01/25 04:02:54;;;;;;;7.13;6.37;;;4.10;99.90;;;;;;7385662;19;20895;-79
2022/01/25 04:05:21;;;;;;;7.13;6.45;;;4.10;99.90;;;;;;7385906;19;20345;-78
2022/01/25 04:07:50;;;;;;;5.95;5.40;;;4.20;99.90;;;;;;7390046;19;20359;-78
2022/01/25 04:10:19;;;;;;;6.63;6.03;;;4.10;99.90;;;;;;7388369;19;20317;-78
2022/01/25 04:12:45;;;;;;;7.33;6.03;;;4.00;99.90;;;;;;7394666;19;20312;-79
2022/01/25 04:15:11;;;;;;;6.47;5.88;;;3.90;99.90;;;;;;7397649;19;20365;-78
2022/01/25 04:17:38;;;;;;;5.45;4.95;;;3.90;99.90;;;;;;7397997;19;20317;-78
2022/01/25 04:25:44;;;;;;;6.65;5.13;;;3.90;99.90;;;;;;7389064;19;20316;-77
2022/01/25 04:28:09;;;;;;;6.97;6.13;;;3.90;99.90;;;;;;7381727;19;20332;-80
2022/01/25 04:30:35;;;;;;;5.93;5.33;;;4.00;99.90;;;;;;7386063;19;20451;-78
2022/01/25 04:33:05;;;;;;;6.75;5.70;;;3.90;99.90;;;;;;7385067;19;20313;-78
2022/01/25 04:49:04;;;;;;;5.78;5.28;;;3.90;99.90;;;;;;7386817;19;20328;-80
2022/01/25 04:59:50;;;;;;;7.78;6.47;;;3.90;99.90;;;;;;7285845;19;2005672;-79
2022/01/25 05:02:14;;;;;;;9.02;7.45;;;3.90;99.90;;;;;;7386547;19;20348;-81
2022/01/25 05:04:45;;;;;;;7.95;7.15;;;3.90;99.90;;;;;;7385079;19;20692;-80
2022/01/25 05:07:25;;;;;;;9.93;8.73;;;4.00;99.90;;;;;;7386044;19;20861;-80
2022/01/25 05:09:52;;;;;;;8.63;7.72;;;3.90;99.90;;;;;;7384119;19;20832;-77
2022/01/25 05:12:18;;;;;;;8.77;7.90;;;4.00;99.90;;;;;;7384616;19;20861;-78
2022/01/25 05:15:00;;;;;;;11.10;9.40;;;3.90;99.90;;;;;;7381984;19;20313;-78
2022/01/25 05:17:36;;;;;;;13.70;10.40;;;4.00;99.90;;;;;;7393745;19;20332;-78
2022/01/25 05:23:00;;;;;;;7.93;7.18;;;3.80;99.90;;;;;;7254895;19;2004554;-79
2022/01/25 05:25:27;;;;;;;10.38;7.75;;;3.80;99.90;;;;;;7277457;19;2004629;-79
2022/01/25 05:27:52;;;;;;;8.13;7.33;;;3.80;99.90;;;;;;7384013;19;20425;-79
2022/01/25 05:30:18;;;;;;;8.67;7.23;;;3.90;99.90;;;;;;7386408;19;20370;-80
2022/01/25 05:32:44;;;;;;;9.02;7.53;;;3.80;99.90;;;;;;7388733;19;20331;-78
2022/01/25 05:35:10;;;;;;;8.53;7.03;;;3.80;99.90;;;;;;7384709;19;20333;-79
2022/01/25 05:37:41;;;;;;;9.43;8.15;;;3.80;99.90;;;;;;7388331;19;20650;-79
2022/01/25 05:40:13;;;;;;;8.20;7.40;;;3.80;99.90;;;;;;7385860;19;20801;-79
2022/01/25 05:47:38;;;;;;;7.85;7.05;;;3.80;99.90;;;;;;7384997;19;20319;-78
2022/01/25 05:50:04;;;;;;;8.05;7.13;;;3.80;99.90;;;;;;7386696;19;20322;-78
2022/01/25 05:52:29;;;;;;;8.57;7.50;;;3.80;99.90;;;;;;7384328;19;20320;-78
2022/01/25 05:54:57;;;;;;;7.70;6.90;;;3.70;99.90;;;;;;7389287;19;20372;-79
2022/01/25 05:57:22;;;;;;;8.43;6.80;;;3.70;99.90;;;;;;7388546;19;20316;-79
2022/01/25 05:59:48;;;;;;;7.27;6.57;;;3.70;99.90;;;;;;7359106;19;20316;-79
2022/01/25 06:02:18;;;;;;;10.68;6.65;;;3.70;99.90;;;;;;7344371;19;20312;-79
2022/01/25 06:04:47;;;;;;;7.57;6.75;;;3.70;99.90;;;;;;7380887;19;20308;-78
2022/01/25 06:07:13;;;;;;;8.77;7.47;;;3.80;99.90;;;;;;7379040;19;20355;-78
2022/01/25 06:09:40;;;;;;;7.22;6.53;;;3.70;99.90;;;;;;7380015;19;20309;-79
2022/01/25 06:12:07;;;;;;;7.18;6.43;;;3.80;99.90;;;;;;7379343;19;20331;-79
2022/01/25 06:14:33;;;;;;;7.63;6.82;;;3.80;99.90;;;;;;7378107;19;20353;-79
2022/01/25 06:16:58;;;;;;;7.90;7.10;;;3.90;99.90;;;;;;7382431;19;20313;-78
2022/01/25 06:19:24;;;;;;;8.65;7.35;;;3.80;99.90;;;;;;7384589;19;20308;-79
2022/01/25 06:21:50;;;;;;;7.00;6.30;;;3.80;99.90;;;;;;7384028;19;20401;-78
2022/01/25 06:24:16;;;;;;;8.02;6.45;;;3.80;99.90;;;;;;7377905;19;20332;-80
2022/01/25 06:26:41;;;;;;;7.15;6.45;;;3.70;99.90;;;;;;7382949;19;20326;-78
2022/01/25 06:29:07;;;;;;;7.07;6.33;;;3.80;99.90;;;;;;7361709;19;20698;-79
2022/01/25 06:31:33;;;;;;;7.00;6.30;;;3.80;99.90;;;;;;7378306;19;20324;-78
2022/01/25 06:33:59;;;;;;;7.50;6.80;;;3.90;99.90;;;;;;7379553;19;20325;-78
2022/01/25 06:36:24;;;;;;;7.40;6.60;;;3.80;99.90;;;;;;7384598;19;21221;-79
2022/01/25 06:38:50;;;;;;;7.10;6.40;;;3.70;99.90;;;;;;7381078;19;20300;-79
2022/01/25 06:41:17;;;;;;;6.50;5.90;;;3.70;99.90;;;;;;7384766;19;20328;-79
2022/01/25 06:43:43;;;;;;;6.30;5.40;;;3.70;99.90;;;;;;7380798;19;20298;-79
2022/01/25 06:46:09;;;;;;;7.57;6.40;;;3.70;99.90;;;;;;7380591;19;20311;-78
2022/01/25 06:48:35;;;;;;;7.70;5.70;;;3.70;99.90;;;;;;7387388;19;21224;-79
2022/01/25 06:51:00;;;;;;;5.45;4.93;;;3.70;99.90;;;;;;7390967;19;20317;-78
2022/01/25 06:53:26;;;;;;;7.18;6.47;;;3.90;99.90;;;;;;7387376;19;20329;-78
2022/01/25 06:55:52;;;;;;;7.97;6.73;;;3.80;99.90;;;;;;7389388;19;20943;-78
2022/01/25 06:58:18;;;;;;;8.52;6.95;;;3.70;99.90;;;;;;7387840;19;20364;-78
2022/01/25 07:00:43;;;;;;;7.38;6.25;;;3.60;99.90;;;;;;7387183;19;20350;-79
2022/01/25 07:03:09;;;;;;;8.67;6.87;;;3.60;99.90;;;;;;7386028;19;20319;-78
2022/01/25 07:05:35;;;;;;;9.45;7.43;;;3.70;99.90;;;;;;7387631;19;20343;-78
2022/01/25 07:08:00;;;;;;;8.10;7.30;;;3.50;99.90;;;;;;7388481;19;20328;-79
2022/01/25 07:10:26;;;;;;;8.37;7.03;;;3.50;99.90;;;;;;7388593;19;20663;-78
2022/01/25 07:12:52;;;;;;;9.65;8.02;;;3.40;99.90;;;;;;7389587;19;20719;-79
2022/01/25 07:15:18;;;;;;;9.67;8.17;;;3.40;99.90;;;;;;7391162;19;20319;-79
2022/01/25 07:17:43;;;;;;;9.93;8.35;;;3.30;99.90;;;;;;7390786;19;20641;-78
2022/01/25 07:20:09;;;;;;;9.73;8.07;;;3.20;99.90;;;;;;7388863;19;20408;-79
2022/01/25 07:22:36;;;;;;;10.30;8.43;;;3.20;99.90;;;;;;7394855;19;20297;-79
2022/01/25 07:25:03;;;;;;;9.63;8.18;;;3.20;99.90;;;;;;7394428;19;20321;-78
2022/01/25 07:27:29;;;;;;;9.17;8.17;;;3.20;99.90;;;;;;7393134;19;20989;-78
2022/01/25 07:29:55;;;;;;;10.00;8.10;;;3.20;99.90;;;;;;7393694;19;20316;-79
2022/01/25 07:32:20;;;;;;;9.30;8.17;;;3.10;99.90;;;;;;7396429;19;20308;-78
2022/01/25 07:34:46;;;;;;;8.37;7.50;;;3.20;99.90;;;;;;7390842;19;20316;-78
2022/01/25 07:37:12;;;;;;;10.63;7.82;;;3.20;99.90;;;;;;7389727;19;20331;-79
2022/01/25 07:39:37;;;;;;;9.67;8.23;;;3.20;99.90;;;;;;7387251;19;20333;-78
2022/01/25 07:42:04;;;;;;;10.20;8.23;;;3.20;99.90;;;;;;7389129;19;20304;-79
2022/01/25 07:44:39;;;;;;;9.45;8.43;;;3.20;99.90;;;;;;7385838;19;20312;-79
2022/01/25 07:47:06;;;;;;;9.13;8.00;;;3.30;99.90;;;;;;7390124;19;20693;-79
2022/01/25 07:49:32;;;;;;;10.23;8.63;;;3.20;99.90;;;;;;7386963;19;20296;-79
2022/01/25 07:51:58;;;;;;;9.57;8.23;;;3.30;99.90;;;;;;7386172;19;20336;-79
2022/01/25 07:54:24;;;;;;;9.90;8.93;;;3.10;99.90;;;;;;7395318;19;21252;-79
2022/01/25 07:56:50;;;;;;;11.27;7.68;;;3.20;99.90;;;;;;7392923;19;20297;-78
2022/01/25 07:59:15;;;;;;;9.55;8.30;;;3.20;99.90;;;;;;7386173;19;20341;-78
2022/01/25 08:01:41;;;;;;;9.37;7.53;;;3.20;99.90;;;;;;7387212;19;20649;-78
2022/01/25 08:04:10;;;;;;;9.65;7.50;;;3.10;99.90;;;;;;7385830;19;20320;-78
2022/01/25 08:06:36;;;;;;;11.13;8.43;;;3.30;99.90;;;;;;7388153;19;21014;-78
2022/01/25 08:09:03;;;;;;;10.90;8.43;;;3.20;99.90;;;;;;7385652;19;20930;-78
2022/01/25 08:11:29;;;;;;;7.68;6.82;;;3.20;99.90;;;;;;7387293;19;20304;-78
2022/01/25 08:14:01;;;;;;;7.97;7.15;;;3.40;99.90;;;;;;7366415;19;20672;-78
2022/01/25 08:16:27;;;;;;;9.07;7.88;;;3.30;99.90;;;;;;7387962;19;20460;-79
2022/01/25 08:18:52;;;;;;;9.27;7.53;;;3.30;99.90;;;;;;7389975;19;20840;-79
2022/01/25 08:21:18;;;;;;;9.07;6.75;;;3.30;99.90;;;;;;7387930;19;20309;-78
2022/01/25 08:23:44;;;;;;;9.43;7.67;;;3.30;99.90;;;;;;7386144;19;20377;-79
2022/01/25 08:26:09;;;;;;;9.27;7.40;;;3.20;99.90;;;;;;7397135;19;20313;-78
2022/01/25 08:28:35;;;;;;;7.20;6.30;;;3.20;99.90;;;;;;7393371;19;20321;-79
2022/01/25 08:31:01;;;;;;;8.53;6.27;;;3.40;99.90;;;;;;7389047;19;20733;-78
2022/01/25 08:33:26;;;;;;;7.45;6.32;;;3.30;99.90;;;;;;7386302;19;20316;-78
2022/01/25 08:35:52;;;;;;;6.30;5.60;;;3.30;99.90;;;;;;7389712;19;20323;-78
2022/01/25 08:38:18;;;;;;;5.90;5.30;;;3.20;99.90;;;;;;7389250;19;20400;-78
2022/01/25 08:40:43;;;;;;;5.93;4.87;;;3.20;99.90;;;;;;7387692;19;20341;-79
2022/01/25 08:43:09;;;;;;;4.30;3.70;;;3.20;99.90;;;;;;7387843;19;20320;-79
2022/01/25 08:45:35;;;;;;;3.88;3.47;;;3.20;99.90;;;;;;7385830;19;20328;-79
2022/01/25 08:48:00;;;;;;;3.57;3.27;;;3.20;99.90;;;;;;7386478;19;20308;-79
2022/01/25 08:50:26;;;;;;;4.70;3.97;;;3.20;99.90;;;;;;7388006;19;20328;-79
2022/01/25 08:52:52;;;;;;;3.73;3.33;;;3.20;99.90;;;;;;7387594;19;20341;-79
2022/01/25 08:55:17;;;;;;;3.90;3.60;;;3.20;99.90;;;;;;7385110;19;20954;-80
2022/01/25 08:57:43;;;;;;;4.25;3.85;;;3.20;99.90;;;;;;7392077;19;20317;-79
2022/01/25 09:00:10;;;;;;;5.23;3.67;;;3.10;99.90;;;;;;7388911;19;20801;-79
2022/01/25 09:02:36;;;;;;;4.55;3.95;;;3.10;99.90;;;;;;7390370;19;20316;-79
2022/01/25 09:05:02;;;;;;;4.38;3.80;;;3.20;99.90;;;;;;7381813;19;20417;-79
2022/01/25 09:07:28;;;;;;;4.20;3.63;;;3.20;99.90;;;;;;7389462;19;20301;-79
2022/01/25 09:09:53;;;;;;;5.00;3.87;;;3.40;99.90;;;;;;7389298;19;21302;-79
2022/01/25 09:12:19;;;;;;;7.57;4.47;;;3.10;99.90;;;;;;7390547;19;20369;-81
2022/01/25 09:14:45;;;;;;;4.20;3.80;;;3.10;99.90;;;;;;7388234;19;20296;-79
2022/01/25 09:17:10;;;;;;;4.77;3.87;;;3.10;99.90;;;;;;7384752;19;20308;-79
2022/01/25 09:19:38;;;;;;;4.63;4.22;;;3.10;99.90;;;;;;7387995;19;20703;-79
2022/01/25 09:22:07;;;;;;;4.57;4.13;;;3.20;99.90;;;;;;7390007;19;20325;-79
2022/01/25 09:24:33;;;;;;;5.83;4.80;;;3.20;99.90;;;;;;7383856;19;20336;-78
2022/01/25 09:26:59;;;;;;;6.50;5.03;;;3.20;99.90;;;;;;7383611;19;20317;-79
2022/01/25 09:29:24;;;;;;;5.68;4.97;;;3.20;99.90;;;;;;7392175;19;20321;-80
2022/01/25 09:31:50;;;;;;;6.90;5.20;;;3.30;99.90;;;;;;7389374;19;20309;-79
2022/01/25 09:34:16;;;;;;;6.57;5.57;;;3.20;99.90;;;;;;7384847;19;20296;-80
2022/01/25 09:36:42;;;;;;;6.03;5.35;;;3.30;99.90;;;;;;7384782;19;20312;-80
2022/01/25 09:39:07;;;;;;;6.87;5.80;;;3.30;99.90;;;;;;7384629;19;20367;-79
2022/01/25 09:41:33;;;;;;;8.40;6.60;;;3.40;99.90;;;;;;7386972;19;20327;-80
2022/01/25 09:43:59;;;;;;;9.05;6.75;;;3.50;99.90;;;;;;7385774;19;20859;-80
2022/01/25 09:46:24;;;;;;;10.17;6.87;;;3.50;99.90;;;;;;7386937;19;20339;-80
2022/01/25 09:48:51;;;;;;;9.77;6.85;;;3.50;99.90;;;;;;7382409;19;20319;-81
2022/01/25 09:51:17;;;;;;;9.95;7.57;;;3.60;99.90;;;;;;7385426;19;20304;-80
2022/01/25 09:53:43;;;;;;;8.93;6.10;;;3.60;99.90;;;;;;7383177;19;20859;-79
2022/01/25 09:56:09;;;;;;;10.80;7.43;;;3.70;99.90;;;;;;7386055;19;20324;-80
2022/01/25 09:58:36;;;;;;;9.57;7.43;;;3.80;99.90;;;;;;7369268;19;20892;-80
2022/01/25 10:01:02;;;;;;;9.18;7.80;;;3.90;99.90;;;;;;7383937;19;20376;-81
2022/01/25 10:03:34;;;;;;;9.15;7.25;;;3.90;99.90;;;;;;7382346;19;20320;-79
2022/01/25 10:06:01;;;;;;;8.70;7.15;;;3.90;99.90;;;;;;7383766;19;20363;-79
2022/01/25 10:08:32;;;;;;;9.77;7.82;;;3.90;99.90;;;;;;7383053;19;20316;-80
2022/01/25 10:11:10;;;;;;;8.35;7.43;;;3.80;99.90;;;;;;7384329;19;20308;-79
2022/01/25 10:13:40;;;;;;;8.32;7.30;;;3.90;99.90;;;;;;7278465;19;2006088;-80
2022/01/25 10:16:14;;;;;;;8.25;6.95;;;3.90;99.90;;;;;;7385348;19;20325;-79
2022/01/25 10:18:39;;;;;;;10.15;8.02;;;3.90;99.90;;;;;;7380335;19;20863;-80
2022/01/25 10:21:13;;;;;;;10.57;7.30;;;3.90;99.90;;;;;;7386463;19;20324;-80
2022/01/25 10:23:40;;;;;;;9.57;7.32;;;3.80;99.90;;;;;;7288544;19;2004567;-81
2022/01/25 10:26:06;;;;;;;9.02;7.15;;;3.90;99.90;;;;;;7391085;19;21093;-80
2022/01/25 10:28:32;;;;;;;9.60;7.43;;;3.90;99.90;;;;;;7389226;19;20384;-81
2022/01/25 10:31:03;;;;;;;10.57;7.87;;;3.90;99.90;;;;;;7392328;19;20365;-80
2022/01/25 10:33:36;;;;;;;8.05;6.57;;;4.10;99.90;;;;;;7394616;19;20638;-80
2022/01/25 10:36:19;;;;;;;9.80;7.50;;;4.00;99.90;;;;;;7368617;19;20313;-81
2022/01/25 10:38:47;;;;;;;12.50;8.30;;;3.90;99.90;;;;;;7389301;19;21167;-80
2022/01/25 10:41:16;;;;;;;11.47;8.27;;;3.90;99.90;;;;;;7390119;19;20319;-80
2022/01/25 10:43:43;;;;;;;10.63;8.50;;;4.00;99.90;;;;;;7388873;19;20312;-80
2022/01/25 10:46:29;;;;;;;11.00;7.90;;;4.10;99.90;;;;;;7393684;19;20304;-81
2022/01/25 10:48:59;;;;;;;9.43;8.02;;;4.00;99.90;;;;;;7297087;19;2008433;-80
2022/01/25 10:51:35;;;;;;;9.13;7.75;;;4.10;99.90;;;;;;7348695;19;20307;-79
2022/01/25 10:54:05;;;;;;;8.93;7.72;;;4.10;99.90;;;;;;7391469;19;20316;-79
2022/01/25 10:56:39;;;;;;;10.15;7.68;;;4.10;99.90;;;;;;7391091;19;20333;-78
2022/01/25 10:59:06;;;;;;;9.40;7.95;;;4.10;99.90;;;;;;7388021;19;20324;-80
2022/01/25 11:01:37;;;;;;;8.95;8.02;;;4.10;99.90;;;;;;7389832;19;20321;-79
2022/01/25 11:04:10;;;;;;;11.48;7.63;;;4.20;99.90;;;;;;7389667;19;20329;-80
2022/01/25 11:06:36;;;;;;;8.70;7.20;;;4.20;99.90;;;;;;7394176;19;20321;-79
2022/01/25 11:09:05;;;;;;;8.82;7.03;;;4.30;99.90;;;;;;7388761;19;20361;-80
2022/01/25 11:11:34;;;;;;;8.35;7.10;;;4.40;99.90;;;;;;7388052;19;20392;-79
2022/01/25 11:14:50;;;;;;;10.05;6.07;;;4.60;99.90;;;;;;7387583;19;20321;-80
2022/01/25 11:16:47;;;;;;;9.30;6.40;;;4.60;99.90;;;;;;7284553;19;2007160;-79
2022/01/25 11:19:13;;;;;;;8.23;6.88;;;4.70;99.90;;;;;;7387134;19;20860;-80
2022/01/25 11:21:38;;;;;;;6.53;5.57;;;4.60;99.90;;;;;;7388719;19;20312;-79
2022/01/25 11:24:04;;;;;;;7.53;5.95;;;4.60;99.90;;;;;;7385054;19;20671;-81
2022/01/25 11:26:30;;;;;;;7.60;6.00;;;4.50;99.90;;;;;;7387976;19;20696;-79
2022/01/25 11:28:56;;;;;;;6.10;5.37;;;4.50;99.90;;;;;;7386936;19;20347;-80
2022/01/25 11:31:22;;;;;;;7.80;5.85;;;4.50;99.90;;;;;;7388136;19;20342;-79
2022/01/25 11:33:49;;;;;;;7.05;5.35;;;4.60;99.90;;;;;;7385975;19;20352;-80
2022/01/25 11:36:15;;;;;;;7.90;5.85;;;4.40;99.90;;;;;;7393272;19;20419;-80
2022/01/25 11:38:42;;;;;;;8.25;5.68;;;4.30;99.90;;;;;;7391921;19;20856;-79
2022/01/25 11:41:09;;;;;;;6.28;5.53;;;4.40;99.90;;;;;;7388018;19;20317;-81
2022/01/25 11:43:35;;;;;;;7.13;5.22;;;4.40;99.90;;;;;;7385182;19;20340;-80
2022/01/25 11:46:03;;;;;;;6.70;5.53;;;4.50;99.90;;;;;;7388328;19;20324;-80
2022/01/25 11:48:43;;;;;;;6.07;4.80;;;4.50;99.90;;;;;;7383866;19;20340;-80
2022/01/25 11:51:18;;;;;;;5.85;4.75;;;4.40;99.90;;;;;;7387780;19;20320;-81
2022/01/25 11:53:46;;;;;;;7.15;5.72;;;4.50;99.90;;;;;;7382394;19;20449;-80
2022/01/25 11:56:12;;;;;;;5.55;4.95;;;4.60;99.90;;;;;;7387732;19;21020;-80
2022/01/25 11:58:38;;;;;;;6.13;5.40;;;4.40;99.90;;;;;;7385908;19;20347;-79
2022/01/25 12:01:25;;;;;;;6.13;5.10;;;4.50;99.90;;;;;;7387294;19;20316;-79
2022/01/25 12:03:52;;;;;;;9.57;5.45;;;4.60;99.90;;;;;;7369798;19;20847;-80
2022/01/25 12:06:31;;;;;;;6.00;5.40;;;4.70;99.90;;;;;;7385837;19;20341;-80
2022/01/25 12:11:50;;;;;;;6.18;5.47;;;4.90;99.90;;;;;;7387658;19;20320;-80
2022/01/25 12:14:26;;;;;;;6.90;5.45;;;4.60;99.90;;;;;;7384771;19;20378;-81
2022/01/25 12:17:03;;;;;;;6.72;6.07;;;4.70;99.90;;;;;;7386081;19;20320;-79
2022/01/25 12:19:46;;;;;;;10.55;6.65;;;4.60;99.90;;;;;;7382966;19;20444;-81
2022/01/25 12:22:48;;;;;;;7.45;5.60;;;4.60;99.90;;;;;;7388496;19;20324;-80
2022/01/25 12:25:17;;;;;;;7.40;6.13;;;4.60;99.90;;;;;;7280666;19;2004279;-79
2022/01/25 12:27:59;;;;;;;6.43;4.85;;;4.70;99.90;;;;;;7389454;19;20401;-79
2022/01/25 12:30:41;;;;;;;7.25;5.35;;;4.40;99.90;;;;;;7392318;19;20406;-80
2022/01/25 12:33:28;;;;;;;5.32;4.82;;;4.50;99.90;;;;;;7389807;19;20348;-80
2022/01/25 12:36:00;;;;;;;5.65;5.15;;;4.50;99.90;;;;;;7388942;19;21169;-80
2022/01/25 12:38:54;;;;;;;8.82;6.15;;;4.40;99.90;;;;;;7388051;19;20320;-79
2022/01/25 12:41:27;;;;;;;8.63;5.93;;;4.40;99.90;;;;;;7289959;19;2007277;-80
2022/01/25 12:43:59;;;;;;;6.30;5.18;;;4.30;99.90;;;;;;7382640;19;20328;-80
2022/01/25 12:46:34;;;;;;;7.27;5.93;;;4.20;99.90;;;;;;7386137;19;20313;-80
2022/01/25 12:49:03;;;;;;;6.22;4.80;;;4.20;99.90;;;;;;7385633;19;20325;-79
2022/01/25 12:51:33;;;;;;;6.73;5.37;;;4.40;99.90;;;;;;7384208;19;20693;-81
2022/01/25 12:54:00;;;;;;;6.55;5.18;;;4.40;99.90;;;;;;7383319;19;20333;-80
2022/01/25 12:56:32;;;;;;;6.40;5.30;;;4.40;99.90;;;;;;7385354;19;20744;-80
2022/01/25 12:59:01;;;;;;;6.45;5.25;;;4.40;99.90;;;;;;7384657;19;20316;-80
2022/01/25 13:01:27;;;;;;;8.45;5.57;;;4.40;99.90;;;;;;7379992;19;20373;-80
2022/01/25 13:03:59;;;;;;;6.07;4.82;;;4.40;99.90;;;;;;7382668;19;20301;-79
2022/01/25 13:06:29;;;;;;;7.70;5.85;;;4.20;99.90;;;;;;7282763;19;2006602;-81
2022/01/25 13:09:13;;;;;;;8.60;6.13;;;4.30;99.90;;;;;;7384480;19;20344;-80
2022/01/25 13:14:32;;;;;;;6.00;5.40;;;4.40;99.90;;;;;;7385133;19;20451;-80
2022/01/25 13:17:01;;;;;;;6.85;5.43;;;4.50;99.90;;;;;;7283099;19;2007094;-80
2022/01/25 13:19:32;;;;;;;7.72;5.13;;;4.50;99.90;;;;;;7384553;19;20304;-80
2022/01/25 13:22:01;;;;;;;5.72;5.13;;;4.40;99.90;;;;;;7381580;19;20353;-79
2022/01/25 13:24:31;;;;;;;7.38;5.32;;;4.50;99.90;;;;;;7382779;19;20333;-79
2022/01/25 13:27:08;;;;;;;7.70;5.57;;;4.50;99.90;;;;;;7385704;19;20898;-79
2022/01/25 13:32:27;;;;;;;7.65;5.78;;;4.50;99.90;;;;;;7280247;19;2004500;-79
2022/01/25 13:35:32;;;;;;;6.28;5.38;;;4.50;99.90;;;;;;7379893;19;20840;-79
2022/01/25 13:38:13;;;;;;;7.55;5.10;;;4.50;99.90;;;;;;7283735;19;2006474;-79
2022/01/25 13:41:05;;;;;;;5.10;4.25;;;4.50;99.90;;;;;;7285203;19;2004466;-80
2022/01/25 13:46:29;;;;;;;5.53;4.80;;;4.40;99.90;;;;;;7284948;19;2006669;-78
2022/01/25 13:49:06;;;;;;;6.70;4.95;;;4.40;99.90;;;;;;7284827;19;2009381;-80
2022/01/25 13:51:44;;;;;;;6.80;4.93;;;4.30;99.90;;;;;;7285440;19;2025490;-79
2022/01/25 13:54:14;;;;;;;5.32;4.72;;;4.40;99.90;;;;;;7281354;19;2006519;-79
2022/01/25 13:56:40;;;;;;;6.72;4.93;;;4.40;99.90;;;;;;7382361;19;20412;-79
2022/01/25 13:59:06;;;;;;;5.70;5.20;;;4.50;99.90;;;;;;7385487;19;20312;-79
2022/01/25 14:01:34;;;;;;;5.75;4.90;;;4.30;99.90;;;;;;7384274;19;20301;-78
2022/01/25 14:04:00;;;;;;;5.47;4.60;;;4.50;99.90;;;;;;7379925;19;20665;-79
2022/01/25 14:06:28;;;;;;;5.72;5.10;;;4.60;99.90;;;;;;7384325;19;20420;-78
2022/01/25 14:09:23;;;;;;;6.38;5.40;;;4.30;99.90;;;;;;7386011;19;20877;-79
2022/01/25 14:21:32;;;;;;;6.10;5.30;;;4.40;99.90;;;;;;7290862;19;2004557;-78
2022/01/25 14:25:37;;;;;;;5.40;4.70;;;4.30;99.90;;;;;;7384399;19;20349;-78
2022/01/25 14:28:14;;;;;;;7.63;6.40;;;4.30;99.90;;;;;;7378500;19;20345;-78
2022/01/25 14:30:44;;;;;;;7.90;5.60;;;4.30;99.90;;;;;;7382217;19;20309;-78
2022/01/25 14:33:14;;;;;;;5.82;4.78;;;4.20;99.90;;;;;;7378939;19;20403;-78
2022/01/25 14:35:47;;;;;;;6.15;5.10;;;4.30;99.90;;;;;;7381440;19;20305;-79
2022/01/25 14:38:20;;;;;;;7.77;5.77;;;4.20;99.90;;;;;;7382916;19;21166;-79
2022/01/25 14:41:17;;;;;;;7.65;6.07;;;4.30;99.90;;;;;;7379904;19;20872;-78
2022/01/25 14:43:51;;;;;;;6.13;5.03;;;4.20;99.90;;;;;;7273627;19;2019039;-78
2022/01/25 14:46:47;;;;;;;8.80;6.75;;;4.20;99.90;;;;;;7377762;19;20872;-79
2022/01/25 14:49:29;;;;;;;13.37;9.57;;;4.20;99.90;;;;;;7378558;19;20352;-80
2022/01/25 14:52:05;;;;;;;7.70;6.10;;;4.20;99.90;;;;;;7277500;19;2009150;-77
2022/01/25 14:54:35;;;;;;;6.65;5.60;;;4.20;99.90;;;;;;7385228;19;20309;-79
2022/01/25 14:57:05;;;;;;;5.68;5.07;;;4.20;99.90;;;;;;7383606;19;20317;-79
2022/01/25 14:59:32;;;;;;;9.93;6.60;;;4.20;99.90;;;;;;7380336;19;20352;-78
2022/01/25 15:02:04;;;;;;;7.03;5.50;;;4.20;99.90;;;;;;7381855;19;20341;-77
2022/01/25 15:04:36;;;;;;;8.73;5.85;;;4.20;99.90;;;;;;7375551;19;20450;-78
2022/01/25 15:07:06;;;;;;;6.18;5.20;;;4.20;99.90;;;;;;7379216;19;20396;-78
2022/01/25 15:09:32;;;;;;;5.67;5.00;;;4.10;99.90;;;;;;7386042;19;20344;-78
2022/01/25 15:11:58;;;;;;;6.80;5.73;;;4.20;99.90;;;;;;7386136;19;20351;-78
2022/01/25 15:14:30;;;;;;;6.35;4.72;;;4.30;99.90;;;;;;7384480;19;20345;-79
2022/01/25 15:16:56;;;;;;;7.22;5.28;;;4.10;99.90;;;;;;7392063;19;20359;-78
2022/01/25 15:19:22;;;;;;;6.03;4.70;;;4.10;99.90;;;;;;7387200;19;20332;-79
2022/01/25 15:21:50;;;;;;;8.17;5.50;;;4.10;99.90;;;;;;7389390;19;20320;-78
2022/01/25 15:24:18;;;;;;;6.55;5.07;;;4.00;99.90;;;;;;7387319;19;20361;-78
2022/01/25 15:26:46;;;;;;;5.47;4.93;;;4.00;99.90;;;;;;7393859;19;20337;-79
2022/01/25 15:29:20;;;;;;;7.63;5.10;;;4.20;99.90;;;;;;7389541;19;21168;-78
2022/01/25 15:31:46;;;;;;;5.65;5.10;;;3.90;99.90;;;;;;7390919;19;21232;-77
2022/01/25 15:34:12;;;;;;;6.23;5.10;;;3.90;99.90;;;;;;7382521;19;20856;-78
2022/01/25 15:36:38;;;;;;;6.73;5.63;;;4.00;99.90;;;;;;7390480;19;20317;-77
2022/01/25 15:39:04;;;;;;;9.43;5.57;;;3.90;99.90;;;;;;7387291;19;20355;-77
2022/01/25 15:41:34;;;;;;;7.00;5.68;;;4.00;99.90;;;;;;7385483;19;20360;-78
2022/01/25 15:43:59;;;;;;;6.97;5.27;;;4.00;99.90;;;;;;7385742;19;20308;-77
2022/01/25 15:46:31;;;;;;;5.22;4.47;;;3.90;99.90;;;;;;7388468;19;21270;-77
2022/01/25 15:49:00;;;;;;;7.30;5.35;;;3.90;99.90;;;;;;7388500;19;20344;-79
2022/01/25 15:51:26;;;;;;;6.47;5.20;;;3.90;99.90;;;;;;7392319;19;20364;-80
2022/01/25 15:53:52;;;;;;;6.40;5.70;;;3.90;99.90;;;;;;7389968;19;20336;-79
2022/01/25 15:56:18;;;;;;;6.22;5.20;;;3.80;99.90;;;;;;7393117;19;20349;-77
2022/01/25 15:58:44;;;;;;;5.70;4.60;;;3.90;99.90;;;;;;7389264;19;20370;-78
2022/01/25 16:01:11;;;;;;;6.88;6.18;;;3.90;99.90;;;;;;7389261;19;20355;-80
2022/01/25 16:03:36;;;;;;;10.18;7.10;;;3.90;99.90;;;;;;7383743;19;21186;-78
2022/01/25 16:06:03;;;;;;;6.97;5.67;;;3.90;99.90;;;;;;7382871;19;20335;-80
2022/01/25 16:08:29;;;;;;;6.72;5.60;;;3.90;99.90;;;;;;7386546;19;20361;-77
2022/01/25 16:10:54;;;;;;;5.50;4.75;;;3.90;99.90;;;;;;7389192;19;20324;-78
2022/01/25 16:13:20;;;;;;;7.03;5.60;;;3.90;99.90;;;;;;7386178;19;20364;-79
2022/01/25 16:15:46;;;;;;;6.68;5.10;;;3.90;99.90;;;;;;7388406;19;20312;-77
2022/01/25 16:18:11;;;;;;;6.23;5.30;;;3.80;99.90;;;;;;7383011;19;20321;-78
2022/01/25 16:20:39;;;;;;;7.72;6.38;;;3.90;99.90;;;;;;7384225;19;20353;-78
2022/01/25 16:23:06;;;;;;;6.55;5.78;;;3.80;99.90;;;;;;7385613;19;20312;-80